Aérodrome :
LOGIN :

S'inscrire | Disclaimer

   EN    FR    IT 

 










Légende :    VFR   VFR Marginal   IFR   IFR Intensif   IFR Très Intensif
Visi : 
Plafond : 
>= 8 km
>= 3000ft
5 à 8 km
1000 à 3000 ft
1500m à 5 km
500 à 1000 ft
800 à 1500m
200 à 500 ft
< 800m
< 200 ft
Symboles :   Orages  Brouillard  Fortes neiges  Fortes précipitations  Vent > 20 kt
SIGMETs :   Divers  Orages  Givrage  Turbulence  Onde Orograph.  Cendres Volcan.






- Altitude de l'aérodrome : 0 ft


ENQA - Troll A Platform

DERNIER METAR :
  • 202320Z AUTO 25036KT 9999NDV BKN027/// BKN150/// 05/00 Q0989 W05/S6

METARs EXPIRÉS :
  • 202250Z AUTO 24026KT 9999NDV FEW013/// SCT160/// 04/01 Q0988 W05/S6
  • 202220Z AUTO 24023KT 9999NDV -SHRA BKN015/// BKN140/// 03/01 Q0988 W05/S6
  • 202150Z AUTO 23026KT 9999NDV FEW044/// SCT120/// BKN160/// 04/01 Q0988 W05/S6
  • 202120Z AUTO 24027KT 9999NDV -SHRA BKN011/// BKN077/// BKN160/// 03/01 Q0988 W04/S6
  • 202050Z AUTO 25036G47KT 9999NDV FEW017/// BKN051/// 04/01 Q0988 W05/S6

TAF N/A



MET'MAP, la Météo Aéronautique d'un coup d'oeil ! - Copyright ORBIFLY Décembre 2007 - Disclaimer

ORBIFLY MET'MAP TEAM :

Programmation & Développement : Alexandra Zaïnal
Sur une idée originale de : Baudouin d'Aumeries
Assistance à la programmation : Marc-Olivier Méhu
Soutien technique & logistique : Manuel Goepfert

Contact : metmap@orbifly.com




SOURCES & CREDITS :

   NOAA